createdAt,value
2018-09-10T00:02:20.472Z,69.80
2018-09-10T00:04:48.199Z,69.40
2018-09-10T00:07:15.946Z,69.10
2018-09-10T00:09:43.676Z,68.30
2018-09-10T00:12:11.495Z,68.50
2018-09-10T00:14:39.275Z,69.40
2018-09-10T00:17:06.991Z,69.20
2018-09-10T00:19:34.793Z,68.70
2018-09-10T00:22:02.545Z,68.20
2018-09-10T00:24:30.264Z,68.00
2018-09-10T00:26:57.992Z,68.10
2018-09-10T00:29:25.751Z,68.00
2018-09-10T00:31:53.476Z,66.80
2018-09-10T00:34:21.207Z,67.70
2018-09-10T00:36:48.972Z,67.30
2018-09-10T00:39:16.697Z,66.60
2018-09-10T00:41:44.427Z,67.40
2018-09-10T00:44:12.200Z,68.60
2018-09-10T00:46:39.897Z,68.00
2018-09-10T00:49:08.159Z,68.40
2018-09-10T00:51:36.057Z,69.80
2018-09-10T00:54:03.810Z,69.20
2018-09-10T00:56:31.548Z,69.10
2018-09-10T00:58:59.298Z,69.50
2018-09-10T01:01:27.028Z,69.30
2018-09-10T01:03:54.745Z,69.00
2018-09-10T01:06:22.489Z,69.00
2018-09-10T01:08:50.256Z,69.90
2018-09-10T01:11:18.046Z,68.60
2018-09-10T01:13:45.841Z,68.70
2018-09-10T01:16:13.596Z,68.80
2018-09-10T01:18:41.317Z,68.50
2018-09-10T01:21:09.056Z,70.20
2018-09-10T01:23:36.842Z,69.00
2018-09-10T01:26:04.557Z,68.60
2018-09-10T01:28:32.842Z,67.60
2018-09-10T01:31:00.608Z,68.00
2018-09-10T01:34:34.884Z,68.00
2018-09-10T01:37:02.601Z,68.10
2018-09-10T01:39:30.373Z,67.60
2018-09-10T01:41:58.097Z,67.90
2018-09-10T01:44:25.802Z,68.60
2018-09-10T01:46:53.502Z,66.60
2018-09-10T01:49:21.281Z,67.10
2018-09-10T01:51:49.004Z,66.90
2018-09-10T01:54:16.772Z,68.00
2018-09-10T01:56:44.481Z,68.30
2018-09-10T01:59:12.172Z,67.90
2018-09-10T02:01:39.901Z,67.40
2018-09-10T02:04:07.608Z,66.90
2018-09-10T02:06:35.328Z,68.70
2018-09-10T02:09:03.387Z,67.70
2018-09-10T02:11:31.144Z,68.60
2018-09-10T02:13:58.877Z,70.00
2018-09-10T02:16:26.672Z,69.80
2018-09-10T02:18:54.367Z,71.50
2018-09-10T02:21:23.080Z,72.90
2018-09-10T02:23:50.790Z,73.10
2018-09-10T02:26:18.552Z,73.00
2018-09-10T02:28:46.251Z,73.10
2018-09-10T02:31:14.021Z,73.20
2018-09-10T02:33:41.736Z,75.70
2018-09-10T02:36:09.484Z,73.40
2018-09-10T02:38:37.305Z,75.50
2018-09-10T02:41:05.257Z,75.30
2018-09-10T02:43:32.966Z,74.90
2018-09-10T02:46:00.680Z,74.70
2018-09-10T02:48:28.397Z,75.30
2018-09-10T02:50:56.147Z,74.40
2018-09-10T02:53:23.868Z,74.00
2018-09-10T02:55:51.606Z,74.60
2018-09-10T02:58:19.325Z,75.80
2018-09-10T03:00:47.032Z,76.40
2018-09-10T03:03:14.761Z,76.40
2018-09-10T03:05:42.491Z,76.50
2018-09-10T03:08:10.236Z,77.30
2018-09-10T03:10:37.970Z,76.10
2018-09-10T03:13:05.705Z,76.70
2018-09-10T03:15:33.521Z,77.30
2018-09-10T03:18:01.264Z,78.70
2018-09-10T03:20:28.969Z,79.70
2018-09-10T03:22:56.743Z,79.50
2018-09-10T03:25:24.450Z,78.90
2018-09-10T03:27:52.181Z,79.70
2018-09-10T03:30:19.909Z,80.10
2018-09-10T03:32:47.615Z,78.50
2018-09-10T03:35:15.374Z,79.10
2018-09-10T03:37:43.104Z,79.70
2018-09-10T03:40:10.871Z,81.40
2018-09-10T03:42:38.601Z,81.00
2018-09-10T03:45:06.357Z,83.50
2018-09-10T03:47:34.097Z,84.80
2018-09-10T03:50:01.852Z,85.20
2018-09-10T03:52:29.588Z,85.60
2018-09-10T03:54:57.298Z,85.20
2018-09-10T03:57:25.016Z,83.50
2018-09-10T03:59:52.731Z,83.10
2018-09-10T04:02:20.463Z,83.40
2018-09-10T04:04:48.216Z,83.40
2018-09-10T04:07:15.928Z,83.10
2018-09-10T04:09:43.620Z,83.40
2018-09-10T04:12:11.366Z,84.10
2018-09-10T04:14:39.235Z,85.80
2018-09-10T04:17:06.985Z,85.50
2018-09-10T04:19:34.769Z,85.00
2018-09-10T04:22:02.472Z,83.30
2018-09-10T04:24:30.188Z,84.60
2018-09-10T04:26:57.928Z,84.00
2018-09-10T04:29:25.672Z,83.70
2018-09-10T04:31:53.388Z,83.20
2018-09-10T04:34:21.084Z,83.80
2018-09-10T04:36:48.808Z,82.70
2018-09-10T04:39:16.505Z,83.80
2018-09-10T04:41:44.287Z,84.30
2018-09-10T04:44:12.023Z,83.50
2018-09-10T04:46:40.028Z,82.70
2018-09-10T04:49:08.734Z,82.50
2018-09-10T04:51:36.450Z,82.60
2018-09-10T04:54:04.728Z,83.20
2018-09-10T04:56:32.769Z,84.90
2018-09-10T04:59:00.910Z,87.20
2018-09-10T05:01:28.650Z,87.60
2018-09-10T05:03:56.391Z,87.00
2018-09-10T05:06:24.133Z,88.00
2018-09-10T05:08:51.853Z,87.70
2018-09-10T05:11:19.600Z,87.00
2018-09-10T05:13:47.312Z,88.80
2018-09-10T05:16:15.022Z,88.30
2018-09-10T05:18:43.154Z,87.70
2018-09-10T05:21:11.085Z,88.70
2018-09-10T05:23:38.813Z,87.80
2018-09-10T05:26:06.545Z,85.30
2018-09-10T05:28:34.286Z,84.30
2018-09-10T05:31:02.014Z,83.10
2018-09-10T05:33:29.699Z,84.20
2018-09-10T05:35:57.403Z,85.00
2018-09-10T05:38:25.149Z,85.70
2018-09-10T05:40:52.845Z,85.60
2018-09-10T05:43:20.572Z,83.20
2018-09-10T05:45:48.312Z,83.10
2018-09-10T05:48:16.020Z,81.70
2018-09-10T05:50:43.760Z,85.20
2018-09-10T05:53:11.490Z,84.40
2018-09-10T05:55:39.290Z,85.40
2018-09-10T05:58:06.947Z,81.90
2018-09-10T06:00:34.703Z,80.00
2018-09-10T06:03:02.436Z,81.30
2018-09-10T06:05:30.157Z,77.20
2018-09-10T06:07:57.880Z,77.50
2018-09-10T06:10:25.654Z,75.80
2018-09-10T06:12:53.348Z,77.60
2018-09-10T06:15:21.088Z,77.30
2018-09-10T06:17:48.806Z,77.80
2018-09-10T06:20:16.545Z,76.50
2018-09-10T06:22:44.253Z,77.10
2018-09-10T06:25:11.953Z,77.60
2018-09-10T06:27:39.673Z,77.00
2018-09-10T06:30:07.400Z,79.50
2018-09-10T06:32:35.127Z,78.20
2018-09-10T06:35:02.900Z,75.40
2018-09-10T06:37:30.660Z,76.10
2018-09-10T06:39:58.384Z,74.30
2018-09-10T06:42:26.108Z,73.60
2018-09-10T06:44:53.859Z,73.00
2018-09-10T06:47:21.616Z,72.50
2018-09-10T06:49:49.364Z,71.60
2018-09-10T06:52:17.061Z,72.80
2018-09-10T06:54:44.804Z,72.30
2018-09-10T06:57:12.585Z,71.80
2018-09-10T06:59:40.289Z,71.50
2018-09-10T07:02:08.013Z,70.20
2018-09-10T07:04:35.729Z,69.90
2018-09-10T07:07:03.480Z,71.20
2018-09-10T07:09:31.168Z,70.10
2018-09-10T07:11:58.869Z,70.20
2018-09-10T07:14:26.585Z,70.00
2018-09-10T07:16:54.290Z,70.50
2018-09-10T07:19:22.018Z,69.30
2018-09-10T07:21:49.819Z,68.10
2018-09-10T07:24:17.593Z,69.60
2018-09-10T07:26:45.287Z,70.00
2018-09-10T07:29:13.217Z,68.20
2018-09-10T07:31:40.949Z,66.50
2018-09-10T07:34:08.685Z,65.40
2018-09-10T07:36:36.421Z,65.10
2018-09-10T07:39:07.297Z,66.50
2018-09-10T07:41:35.069Z,63.20
2018-09-10T07:44:03.676Z,62.10
2018-09-10T07:46:31.341Z,64.10
2018-09-10T07:48:59.168Z,64.40
2018-09-10T07:51:26.828Z,63.40
2018-09-10T07:53:54.544Z,61.70
2018-09-10T07:56:22.577Z,60.90
2018-09-10T07:58:50.309Z,61.70
2018-09-10T08:01:18.029Z,59.40
2018-09-10T08:03:45.751Z,58.00
2018-09-10T08:06:13.675Z,57.70
2018-09-10T08:08:41.566Z,58.00
2018-09-10T08:11:09.271Z,58.60
2018-09-10T08:13:36.976Z,58.00
2018-09-10T08:16:04.732Z,59.40
2018-09-10T08:18:32.429Z,57.80
2018-09-10T08:21:00.188Z,57.80
2018-09-10T08:23:27.901Z,58.00
2018-09-10T08:25:55.695Z,56.90
2018-09-10T08:28:23.411Z,57.10
2018-09-10T08:30:51.272Z,52.90
2018-09-10T08:33:18.984Z,47.80
2018-09-10T08:35:46.676Z,46.30
2018-09-10T08:38:14.382Z,44.00
2018-09-10T08:40:42.080Z,39.70
2018-09-10T08:43:09.780Z,37.20
2018-09-10T08:45:37.500Z,37.60
2018-09-10T08:48:05.320Z,37.20
2018-09-10T08:50:33.033Z,36.40
2018-09-10T08:53:00.752Z,35.50
2018-09-10T08:55:28.536Z,37.00
2018-09-10T08:57:56.197Z,38.00
2018-09-10T09:00:25.180Z,35.80
2018-09-10T09:02:52.865Z,35.30
2018-09-10T09:05:20.612Z,34.30
2018-09-10T09:07:48.427Z,34.50
2018-09-10T09:10:16.115Z,35.60
2018-09-10T09:12:43.837Z,35.80
2018-09-10T09:15:12.522Z,34.00
2018-09-10T09:17:40.239Z,31.70
2018-09-10T09:20:08.130Z,31.10
2018-09-10T09:22:35.861Z,30.80
2018-09-10T09:25:03.703Z,29.50
2018-09-10T09:27:31.492Z,28.50
2018-09-10T09:29:59.220Z,28.80
2018-09-10T09:32:26.982Z,27.40
2018-09-10T09:34:54.716Z,27.10
2018-09-10T09:37:28.421Z,26.40
2018-09-10T09:40:01.868Z,26.50
2018-09-10T09:42:35.376Z,26.20
2018-09-10T09:45:08.764Z,24.50
2018-09-10T09:47:36.617Z,23.00
2018-09-10T09:50:04.487Z,21.30
2018-09-10T09:52:32.243Z,20.00
2018-09-10T09:55:00.432Z,19.00
2018-09-10T09:57:28.452Z,19.90
2018-09-10T09:59:56.232Z,19.30
2018-09-10T10:02:29.586Z,18.10
2018-09-10T10:04:57.961Z,19.00
2018-09-10T10:07:25.726Z,19.70
2018-09-10T10:09:53.458Z,19.90
2018-09-10T10:12:21.374Z,18.90
2018-09-10T10:14:48.947Z,17.40
2018-09-10T10:17:19.009Z,17.20
2018-09-10T10:19:47.315Z,16.80
2018-09-10T10:22:15.256Z,18.30
2018-09-10T10:24:43.090Z,17.00
2018-09-10T10:27:10.872Z,18.70
2018-09-10T10:29:38.588Z,19.60
2018-09-10T10:32:06.401Z,18.90
2018-09-10T10:34:34.144Z,19.40
2018-09-10T10:37:01.883Z,18.70
2018-09-10T10:39:29.632Z,17.20
2018-09-10T10:41:57.337Z,18.20
2018-09-10T10:44:25.168Z,19.10
2018-09-10T10:46:52.953Z,21.80
2018-09-10T10:49:20.737Z,23.40
2018-09-10T10:51:48.632Z,26.30
2018-09-10T10:54:16.493Z,27.70
2018-09-10T10:56:44.231Z,27.40
2018-09-10T10:59:11.937Z,26.40
2018-09-10T11:01:39.737Z,27.50
2018-09-10T11:04:07.469Z,27.50
2018-09-10T11:06:35.225Z,25.90
2018-09-10T11:09:04.100Z,23.80
2018-09-10T11:11:31.818Z,22.80
2018-09-10T11:13:59.580Z,21.80
2018-09-10T11:16:27.327Z,23.50
2018-09-10T11:18:55.086Z,26.70
2018-09-10T11:21:22.812Z,27.20
2018-09-10T11:23:50.564Z,27.40
2018-09-10T11:26:18.304Z,27.30
2018-09-10T11:28:46.029Z,27.40
2018-09-10T11:31:13.757Z,27.50
2018-09-10T11:33:41.458Z,29.50
2018-09-10T11:36:09.297Z,31.40
2018-09-10T11:38:37.124Z,32.80
2018-09-10T11:41:05.001Z,34.40
2018-09-10T11:43:32.809Z,33.80
2018-09-10T11:46:00.504Z,34.30
2018-09-10T11:48:28.269Z,34.70
2018-09-10T11:50:56.069Z,34.20
2018-09-10T11:53:23.811Z,35.00
2018-09-10T11:55:51.512Z,34.20
2018-09-10T11:58:19.240Z,34.60
2018-09-10T12:00:46.999Z,35.00
2018-09-10T12:03:14.725Z,35.50
2018-09-10T12:05:42.507Z,32.80
2018-09-10T12:08:10.208Z,31.30
2018-09-10T12:10:37.964Z,29.30
2018-09-10T12:13:05.701Z,27.70
2018-09-10T12:15:33.517Z,27.50
2018-09-10T12:18:01.309Z,27.40
2018-09-10T12:20:29.035Z,26.80
2018-09-10T12:22:56.760Z,27.10
2018-09-10T12:25:24.489Z,27.90
2018-09-10T12:27:52.237Z,29.40
2018-09-10T12:30:19.978Z,28.20
2018-09-10T12:32:47.735Z,28.40
2018-09-10T12:35:15.473Z,28.20
2018-09-10T12:37:43.204Z,29.20
2018-09-10T12:40:10.920Z,29.90
2018-09-10T12:42:38.656Z,31.10
2018-09-10T12:45:06.469Z,30.70
2018-09-10T12:47:34.189Z,30.60
2018-09-10T12:50:01.987Z,32.30
2018-09-10T12:52:29.710Z,33.50
2018-09-10T12:54:57.431Z,32.70
2018-09-10T12:57:25.161Z,31.90
2018-09-10T12:59:52.973Z,32.50
2018-09-10T13:02:20.772Z,32.00
2018-09-10T13:04:48.486Z,32.00
2018-09-10T13:07:16.196Z,32.20
2018-09-10T13:09:43.913Z,32.20
2018-09-10T13:12:11.652Z,32.60
2018-09-10T13:14:39.357Z,33.60
2018-09-10T13:17:07.094Z,33.70
2018-09-10T13:19:34.829Z,34.20
2018-09-10T13:22:02.557Z,34.80
2018-09-10T13:24:30.259Z,35.80
2018-09-10T13:26:57.977Z,35.20
2018-09-10T13:29:25.772Z,35.10
2018-09-10T13:31:53.468Z,35.00
2018-09-10T13:34:21.164Z,35.10
2018-09-10T13:36:49.168Z,35.30
2018-09-10T13:39:16.879Z,34.50
2018-09-10T13:41:44.604Z,33.70
2018-09-10T13:44:13.203Z,34.90
2018-09-10T13:46:40.920Z,36.00
2018-09-10T13:49:08.669Z,36.00
2018-09-10T13:51:36.432Z,35.50
2018-09-10T13:54:04.191Z,34.70
2018-09-10T13:56:31.932Z,34.70
2018-09-10T13:58:59.664Z,35.00
2018-09-10T14:01:27.359Z,35.00
2018-09-10T14:03:55.111Z,34.40
2018-09-10T14:06:22.837Z,34.30
2018-09-10T14:08:50.804Z,34.50
2018-09-10T14:11:18.524Z,33.70
2018-09-10T14:13:46.221Z,34.90
2018-09-10T14:16:13.949Z,36.00
2018-09-10T14:18:41.646Z,36.20
2018-09-10T14:21:09.360Z,36.10
2018-09-10T14:23:37.077Z,36.20
2018-09-10T14:26:04.845Z,36.30
2018-09-10T14:28:32.652Z,36.10
2018-09-10T14:31:00.381Z,36.20
2018-09-10T14:33:28.112Z,36.20
2018-09-10T14:35:55.848Z,37.10
2018-09-10T14:38:23.573Z,36.10
2018-09-10T14:40:51.267Z,36.90
2018-09-10T14:43:18.955Z,36.80
2018-09-10T14:45:46.668Z,38.20
2018-09-10T14:48:14.382Z,38.50
2018-09-10T14:50:42.201Z,39.70
2018-09-10T14:53:09.888Z,39.10
2018-09-10T14:55:37.644Z,38.60
2018-09-10T14:58:05.377Z,37.90
2018-09-10T15:00:33.074Z,38.90
2018-09-10T15:03:00.776Z,38.60
2018-09-10T15:05:28.457Z,38.40
2018-09-10T15:07:56.174Z,38.00
2018-09-10T15:10:23.891Z,38.20
2018-09-10T15:12:51.617Z,37.90
2018-09-10T15:15:20.228Z,37.80
2018-09-10T15:17:47.933Z,38.20
2018-09-10T15:20:15.690Z,37.60
2018-09-10T15:22:43.416Z,37.50
2018-09-10T15:25:11.168Z,38.30
2018-09-10T15:27:39.186Z,38.60
2018-09-10T15:30:07.170Z,39.00
2018-09-10T15:32:34.893Z,39.10
2018-09-10T15:35:02.594Z,39.10
2018-09-10T15:37:30.991Z,38.70
2018-09-10T15:39:58.721Z,38.70
2018-09-10T15:42:26.458Z,38.70
2018-09-10T15:44:54.175Z,38.80
2018-09-10T15:47:21.920Z,39.20
2018-09-10T15:49:49.634Z,39.20
2018-09-10T15:52:17.340Z,39.60
2018-09-10T15:54:45.065Z,40.00
2018-09-10T15:57:12.775Z,39.20
2018-09-10T15:59:40.838Z,39.50
2018-09-10T16:02:08.543Z,40.20
2018-09-10T16:04:36.292Z,40.00
2018-09-10T16:07:04.003Z,40.30
2018-09-10T16:09:31.706Z,40.10
2018-09-10T16:11:59.503Z,39.90
2018-09-10T16:14:27.237Z,40.40
2018-09-10T16:16:55.073Z,40.20
2018-09-10T16:19:22.788Z,40.00
2018-09-10T16:21:50.504Z,40.30
2018-09-10T16:24:18.236Z,41.00
2018-09-10T16:26:45.955Z,41.40
2018-09-10T16:29:13.685Z,42.00
2018-09-10T16:31:41.394Z,42.00
2018-09-10T16:34:09.106Z,42.40
2018-09-10T16:36:36.814Z,42.40
2018-09-10T16:39:07.389Z,41.70
2018-09-10T16:41:35.122Z,41.70
2018-09-10T16:44:02.910Z,42.00
2018-09-10T16:46:30.704Z,42.20
2018-09-10T16:48:58.447Z,42.60
2018-09-10T16:51:26.278Z,43.10
2018-09-10T16:53:53.987Z,43.70
2018-09-10T16:56:21.755Z,43.20
2018-09-10T16:58:49.552Z,43.20
2018-09-10T17:01:17.268Z,43.80
2018-09-10T17:03:45.019Z,44.20
2018-09-10T17:06:12.829Z,44.10
2018-09-10T17:08:40.687Z,44.80
2018-09-10T17:11:08.411Z,44.40
2018-09-10T17:13:36.182Z,44.30
2018-09-10T17:16:03.924Z,44.60
2018-09-10T17:18:31.662Z,45.30
2018-09-10T17:20:59.432Z,44.90
2018-09-10T17:23:27.172Z,44.90
2018-09-10T17:25:55.313Z,45.40
2018-09-10T17:28:23.243Z,46.00
2018-09-10T17:30:51.749Z,46.70
2018-09-10T17:33:19.593Z,47.60
2018-09-10T17:35:47.664Z,47.60
2018-09-10T17:38:15.468Z,47.90
2018-09-10T17:40:43.243Z,47.70
2018-09-10T17:43:11.002Z,47.80
2018-09-10T17:45:39.011Z,47.50
2018-09-10T17:48:07.034Z,48.30
2018-09-10T17:50:34.812Z,49.30
2018-09-10T17:53:02.562Z,49.50
2018-09-10T17:55:30.289Z,49.60
2018-09-10T17:57:58.030Z,50.40
2018-09-10T18:00:25.841Z,51.70
2018-09-10T18:02:53.568Z,52.10
2018-09-10T18:05:21.399Z,53.10
2018-09-10T18:07:49.166Z,53.00
2018-09-10T18:10:16.901Z,54.00
2018-09-10T18:12:44.746Z,54.90
2018-09-10T18:15:12.564Z,55.70
2018-09-10T18:17:40.290Z,56.00
2018-09-10T18:20:08.076Z,55.90
2018-09-10T18:22:36.005Z,57.30
2018-09-10T18:25:04.140Z,57.30
2018-09-10T18:27:31.824Z,58.20
2018-09-10T18:29:59.594Z,60.20
2018-09-10T18:32:27.357Z,60.10
2018-09-10T18:34:55.080Z,60.80
2018-09-10T18:37:22.842Z,60.80
2018-09-10T18:39:50.560Z,60.80
2018-09-10T18:42:18.269Z,60.70
2018-09-10T18:44:46.005Z,61.50
2018-09-10T18:47:13.737Z,61.30
2018-09-10T18:49:41.486Z,60.60
2018-09-10T18:52:09.196Z,62.00
2018-09-10T18:54:36.988Z,62.70
2018-09-10T18:57:04.817Z,62.70
2018-09-10T18:59:32.558Z,63.90
2018-09-10T19:02:00.335Z,63.30
2018-09-10T19:04:28.085Z,63.50
2018-09-10T19:06:55.825Z,63.50
2018-09-10T19:09:23.548Z,63.80
2018-09-10T19:11:51.280Z,65.10
2018-09-10T19:14:19.040Z,65.10
2018-09-10T19:16:46.768Z,67.40
2018-09-10T19:19:14.468Z,66.50
2018-09-10T19:21:42.196Z,66.80
2018-09-10T19:24:09.900Z,66.80
2018-09-10T19:26:37.649Z,66.50
2018-09-10T19:29:05.368Z,66.10
2018-09-10T19:31:33.084Z,66.70
2018-09-10T19:34:00.822Z,66.80
2018-09-10T19:36:28.567Z,68.60
2018-09-10T19:38:56.298Z,68.90
2018-09-10T19:41:24.037Z,68.10
2018-09-10T19:43:51.832Z,68.00
2018-09-10T19:46:19.605Z,70.60
2018-09-10T19:48:47.326Z,71.50
2018-09-10T19:51:15.064Z,72.50
2018-09-10T19:53:42.785Z,74.20
2018-09-10T19:56:10.513Z,74.70
2018-09-10T19:58:38.299Z,75.20
2018-09-10T20:01:06.057Z,76.40
2018-09-10T20:03:33.825Z,76.10
2018-09-10T20:06:01.591Z,76.80
2018-09-10T20:08:29.289Z,76.80
2018-09-10T20:10:57.030Z,77.00
2018-09-10T20:13:24.759Z,75.90
2018-09-10T20:15:52.561Z,76.20
2018-09-10T20:18:20.272Z,78.20
2018-09-10T20:20:48.000Z,77.20
2018-09-10T20:23:15.720Z,76.40
2018-09-10T20:25:43.470Z,73.40
2018-09-10T20:28:11.267Z,71.40
2018-09-10T20:30:39.012Z,69.90
2018-09-10T20:33:06.720Z,68.80
2018-09-10T20:35:34.479Z,68.40
2018-09-10T20:38:02.217Z,68.70
2018-09-10T20:40:29.957Z,67.60
2018-09-10T20:42:57.679Z,69.20
2018-09-10T20:45:25.439Z,69.50
2018-09-10T20:47:53.172Z,69.60
2018-09-10T20:50:21.068Z,70.20
2018-09-10T20:52:48.808Z,69.70
2018-09-10T20:55:16.533Z,70.80
2018-09-10T20:57:44.249Z,69.60
2018-09-10T21:00:11.971Z,69.60
2018-09-10T21:02:39.686Z,69.70
2018-09-10T21:05:07.497Z,70.00
2018-09-10T21:07:35.324Z,69.40
2018-09-10T21:10:03.068Z,68.70
2018-09-10T21:12:30.795Z,69.20
2018-09-10T21:14:58.512Z,69.10
2018-09-10T21:17:26.257Z,68.80
2018-09-10T21:19:54.004Z,69.30
2018-09-10T21:22:21.744Z,69.20
2018-09-10T21:24:49.478Z,68.70
2018-09-10T21:27:17.219Z,69.20
2018-09-10T21:29:44.981Z,69.80
2018-09-10T21:32:12.712Z,68.00
2018-09-10T21:34:40.509Z,68.20
2018-09-10T21:37:08.289Z,68.00
2018-09-10T21:39:36.025Z,67.60
2018-09-10T21:42:03.825Z,68.20
2018-09-10T21:44:31.575Z,68.50
2018-09-10T21:46:59.343Z,68.20
2018-09-10T21:49:27.088Z,67.50
2018-09-10T21:51:54.885Z,68.70
2018-09-10T21:54:22.651Z,68.10
2018-09-10T21:56:50.818Z,67.50
2018-09-10T21:59:18.668Z,68.30
2018-09-10T22:01:46.429Z,68.30
2018-09-10T22:04:14.189Z,69.60
2018-09-10T22:06:41.965Z,69.20
2018-09-10T22:09:09.731Z,68.90
2018-09-10T22:11:45.105Z,68.80
2018-09-10T22:14:12.889Z,68.80
2018-09-10T22:16:40.612Z,69.30
2018-09-10T22:19:08.382Z,69.10
2018-09-10T22:21:36.120Z,69.20
2018-09-10T22:24:03.900Z,69.80
2018-09-10T22:26:31.653Z,69.80
2018-09-10T22:28:59.392Z,69.20
2018-09-10T22:31:27.137Z,70.80
2018-09-10T22:33:54.939Z,71.50
2018-09-10T22:36:22.692Z,72.60
2018-09-10T22:38:50.497Z,71.90
2018-09-10T22:41:18.279Z,72.30
2018-09-10T22:43:46.068Z,73.20
2018-09-10T22:46:13.807Z,73.20
2018-09-10T22:48:41.617Z,73.10
2018-09-10T22:51:09.409Z,73.50
2018-09-10T22:53:37.157Z,73.80
2018-09-10T22:56:04.927Z,73.70
2018-09-10T22:58:32.690Z,73.70
2018-09-10T23:01:00.490Z,74.40
2018-09-10T23:03:28.237Z,75.50
2018-09-10T23:05:56.010Z,75.60
2018-09-10T23:08:23.757Z,75.50
2018-09-10T23:10:51.510Z,76.10
2018-09-10T23:13:19.336Z,76.50
2018-09-10T23:15:47.111Z,76.20
2018-09-10T23:18:14.865Z,77.00
2018-09-10T23:20:42.621Z,77.60
2018-09-10T23:23:10.335Z,77.00
2018-09-10T23:25:38.081Z,77.40
2018-09-10T23:28:05.824Z,78.50
2018-09-10T23:30:33.544Z,78.80
2018-09-10T23:33:01.288Z,79.70
2018-09-10T23:35:29.036Z,79.20
2018-09-10T23:37:56.839Z,80.10
2018-09-10T23:40:24.575Z,79.60
2018-09-10T23:42:52.336Z,79.00
2018-09-10T23:45:20.245Z,80.20
2018-09-10T23:47:48.557Z,79.40
2018-09-10T23:50:16.317Z,80.40
2018-09-10T23:52:44.060Z,80.10
2018-09-10T23:55:11.808Z,80.20
2018-09-10T23:57:39.561Z,81.30
